Time;durP1;ratioP1;P1;durP2;ratioP2;P2;SDS_P1;SDS_P2;PMS_P1;PMS_P2;Temp;Humidity;BMP_temperature;BMP_pressure;BME280_temperature;BME280_humidity;BME280_pressure;Samples;Min_cycle;Max_cycle;Signal;HPM_P1;HPM_P2
2022/03/21 00:03:31;;;;;;;88.38;39.65;;;;;;;;;;10352377;28;20045;-68
2022/03/21 00:08:33;;;;;;;210.70;69.82;;;;;;;;;;10353184;28;20050;-68
2022/03/21 00:13:38;;;;;;;110.20;50.15;;;;;;;;;;10352872;28;20061;-69
2022/03/21 00:18:42;;;;;;;97.70;43.55;;;;;;;;;;10351394;28;20046;-67
2022/03/21 00:23:44;;;;;;;92.97;41.63;;;;;;;;;;10352785;28;20114;-67
2022/03/21 00:28:47;;;;;;;79.78;36.92;;;;;;;;;;10351996;28;20062;-67
2022/03/21 00:33:50;;;;;;;74.53;34.85;;;;;;;;;;10351021;28;20046;-68
2022/03/21 00:38:53;;;;;;;83.07;42.33;;;;;;;;;;10355315;28;20042;-67
2022/03/21 00:43:55;;;;;;;77.07;36.13;;;;;;;;;;10353225;28;20154;-68
2022/03/21 00:48:59;;;;;;;71.05;34.20;;;;;;;;;;10351179;28;20050;-68
2022/03/21 00:54:01;;;;;;;75.28;34.67;;;;;;;;;;10351859;28;20065;-68
2022/03/21 00:59:04;;;;;;;73.05;35.70;;;;;;;;;;10351572;28;20046;-68
2022/03/21 01:04:08;;;;;;;83.25;37.63;;;;;;;;;;10350274;28;20046;-67
2022/03/21 01:09:12;;;;;;;74.18;35.85;;;;;;;;;;10375705;28;20344;-67
2022/03/21 01:14:14;;;;;;;82.97;36.03;;;;;;;;;;10365972;28;20038;-67
2022/03/21 01:19:18;;;;;;;77.03;35.85;;;;;;;;;;10358927;28;20370;-67
2022/03/21 01:24:20;;;;;;;82.43;36.92;;;;;;;;;;10358493;28;20046;-68
2022/03/21 01:29:23;;;;;;;74.28;37.45;;;;;;;;;;10358054;28;20063;-67
2022/03/21 01:34:27;;;;;;;78.30;39.55;;;;;;;;;;10357948;28;20038;-68
2022/03/21 01:39:30;;;;;;;79.32;38.75;;;;;;;;;;10375072;28;20054;-67
2022/03/21 01:44:32;;;;;;;79.88;35.95;;;;;;;;;;10357542;28;20061;-68
2022/03/21 01:49:36;;;;;;;77.70;36.17;;;;;;;;;;10357177;28;20081;-67
2022/03/21 01:59:58;;;;;;;82.20;37.40;;;;;;;;;;10401195;28;20202;-67
2022/03/21 02:05:02;;;;;;;77.80;36.95;;;;;;;;;;10356260;28;20065;-66
2022/03/21 02:10:05;;;;;;;86.45;38.75;;;;;;;;;;10356929;28;20050;-68
2022/03/21 02:15:10;;;;;;;79.88;36.63;;;;;;;;;;10356148;28;20249;-67
2022/03/21 02:20:18;;;;;;;91.32;40.08;;;;;;;;;;10356012;28;20077;-67
2022/03/21 02:25:30;;;;;;;87.55;38.65;;;;;;;;;;10355519;28;20062;-67
2022/03/21 02:30:36;;;;;;;86.72;37.75;;;;;;;;;;10359386;28;20105;-68
2022/03/21 02:35:39;;;;;;;78.10;36.55;;;;;;;;;;10355863;28;20349;-68
2022/03/21 02:40:43;;;;;;;78.50;35.08;;;;;;;;;;10354089;28;20042;-68
2022/03/21 02:45:45;;;;;;;81.65;36.80;;;;;;;;;;10366351;28;20210;-67
2022/03/21 02:50:55;;;;;;;74.38;36.63;;;;;;;;;;10355286;28;20361;-67
2022/03/21 02:55:59;;;;;;;75.10;35.88;;;;;;;;;;10355033;28;20364;-68
2022/03/21 03:01:09;;;;;;;80.72;37.28;;;;;;;;;;10354021;28;20220;-68
2022/03/21 03:06:11;;;;;;;74.63;35.42;;;;;;;;;;10356246;28;20042;-68
2022/03/21 03:11:15;;;;;;;76.13;37.20;;;;;;;;;;10355128;28;20051;-68
2022/03/21 03:16:18;;;;;;;81.20;39.17;;;;;;;;;;10354054;28;20046;-68
2022/03/21 03:21:23;;;;;;;76.63;36.72;;;;;;;;;;10354939;28;20042;-68
2022/03/21 03:26:27;;;;;;;76.85;36.05;;;;;;;;;;10353692;28;20341;-67
2022/03/21 03:31:30;;;;;;;73.15;34.38;;;;;;;;;;10353947;28;20058;-67
2022/03/21 03:36:33;;;;;;;77.13;36.78;;;;;;;;;;10352681;28;20317;-67
2022/03/21 03:41:37;;;;;;;77.47;36.58;;;;;;;;;;10353154;28;20400;-67
2022/03/21 03:46:39;;;;;;;72.05;35.95;;;;;;;;;;10358633;28;20058;-67
2022/03/21 03:51:42;;;;;;;74.13;35.97;;;;;;;;;;10392304;28;20049;-68
2022/03/21 03:56:45;;;;;;;75.57;36.05;;;;;;;;;;10371898;28;20066;-67
2022/03/21 04:01:47;;;;;;;72.45;34.40;;;;;;;;;;10352129;28;20367;-67
2022/03/21 04:06:50;;;;;;;74.07;35.15;;;;;;;;;;10352672;28;20062;-67
2022/03/21 04:11:53;;;;;;;71.55;32.55;;;;;;;;;;10353087;28;20049;-68
2022/03/21 04:16:57;;;;;;;74.55;33.53;;;;;;;;;;10312841;28;20333;-68
2022/03/21 04:21:59;;;;;;;77.10;35.38;;;;;;;;;;10336727;28;20069;-68
2022/03/21 04:27:03;;;;;;;68.72;32.17;;;;;;;;;;10364659;28;20042;-68
2022/03/21 04:32:06;;;;;;;67.40;32.92;;;;;;;;;;10392851;28;20057;-67
2022/03/21 04:37:09;;;;;;;72.68;33.75;;;;;;;;;;10392007;28;20053;-68
2022/03/21 04:42:12;;;;;;;68.85;35.05;;;;;;;;;;10385502;28;20286;-68
2022/03/21 04:47:15;;;;;;;67.35;33.95;;;;;;;;;;10351169;28;20202;-67
2022/03/21 04:52:17;;;;;;;67.72;33.53;;;;;;;;;;10350840;28;20238;-68
2022/03/21 04:57:22;;;;;;;80.55;34.15;;;;;;;;;;10356816;28;20230;-67
2022/03/21 05:02:24;;;;;;;75.22;37.05;;;;;;;;;;10391578;28;20054;-67
2022/03/21 05:07:26;;;;;;;102.65;42.78;;;;;;;;;;10374300;28;20125;-67
2022/03/21 05:12:30;;;;;;;77.65;39.20;;;;;;;;;;10383101;28;20053;-69
2022/03/21 05:17:33;;;;;;;86.40;45.53;;;;;;;;;;10390694;28;20050;-67
2022/03/21 05:22:35;;;;;;;378.45;141.88;;;;;;;;;;10390488;28;20260;-68
2022/03/21 05:38:32;;;;;;;54.08;33.15;;;;;;;;;;10224793;29;20051;-67
2022/03/21 05:43:35;;;;;;;55.55;34.13;;;;;;;;;;10226132;29;20072;-67
2022/03/21 05:48:58;;;;;;;49.38;30.52;;;;;;;;;;10254882;29;20055;-69
2022/03/21 05:54:02;;;;;;;45.42;29.15;;;;;;;;;;10264994;29;20051;-67
2022/03/21 06:04:23;;;;;;;43.20;28.58;;;;;;;;;;10232619;29;20298;-68
2022/03/21 06:09:25;;;;;;;53.58;30.83;;;;;;;;;;10246307;28;20245;-68
2022/03/21 06:14:30;;;;;;;57.30;33.10;;;;;;;;;;10358087;28;20046;-68
2022/03/21 06:19:32;;;;;;;51.42;31.42;;;;;;;;;;10396334;28;20287;-67
2022/03/21 06:24:35;;;;;;;50.90;31.97;;;;;;;;;;10360450;28;20365;-68
2022/03/21 06:29:42;;;;;;;41.05;28.63;;;;;;;;;;10354077;28;20062;-68
2022/03/21 06:34:45;;;;;;;39.42;26.92;;;;;;;;;;10347932;28;20085;-68
2022/03/21 06:39:48;;;;;;;37.70;26.45;;;;;;;;;;10353223;28;20065;-69
2022/03/21 06:44:52;;;;;;;42.70;28.13;;;;;;;;;;10354636;28;20113;-69
2022/03/21 06:49:55;;;;;;;36.00;24.23;;;;;;;;;;10384021;28;20045;-68
2022/03/21 06:54:57;;;;;;;36.17;23.95;;;;;;;;;;10371705;28;20046;-69
2022/03/21 07:00:02;;;;;;;34.28;23.25;;;;;;;;;;10354047;28;20057;-68
2022/03/21 07:05:07;;;;;;;28.90;22.05;;;;;;;;;;10366970;28;20108;-70
2022/03/21 07:10:10;;;;;;;29.60;18.88;;;;;;;;;;10354726;28;20051;-71
2022/03/21 07:15:15;;;;;;;23.95;17.73;;;;;;;;;;10369957;28;20060;-69
2022/03/21 07:20:20;;;;;;;27.42;19.67;;;;;;;;;;10394269;28;20058;-70
2022/03/21 07:25:22;;;;;;;20.10;16.98;;;;;;;;;;10353709;28;20364;-69
2022/03/21 07:30:27;;;;;;;21.23;16.60;;;;;;;;;;10353241;28;20116;-69
2022/03/21 07:35:30;;;;;;;24.60;15.38;;;;;;;;;;10352388;28;20244;-70
2022/03/21 07:40:33;;;;;;;21.05;15.40;;;;;;;;;;10352720;28;20333;-68
2022/03/21 07:50:56;;;;;;;15.88;13.20;;;;;;;;;;10352266;28;20062;-69
2022/03/21 07:56:00;;;;;;;22.35;14.02;;;;;;;;;;10352256;28;20046;-70
2022/03/21 08:01:03;;;;;;;18.38;13.32;;;;;;;;;;10351774;28;20089;-69
2022/03/21 08:06:10;;;;;;;23.10;13.80;;;;;;;;;;10335524;28;20053;-69
2022/03/21 08:11:12;;;;;;;17.83;12.55;;;;;;;;;;10393186;28;20046;-70
2022/03/21 08:16:19;;;;;;;19.17;13.52;;;;;;;;;;10378162;28;20062;-70
2022/03/21 08:21:22;;;;;;;14.75;11.32;;;;;;;;;;10367848;28;20038;-68
2022/03/21 08:26:24;;;;;;;16.15;14.13;;;;;;;;;;10388057;28;20058;-68
2022/03/21 08:31:29;;;;;;;27.48;16.23;;;;;;;;;;10350356;28;20132;-68
2022/03/21 08:36:32;;;;;;;20.23;14.50;;;;;;;;;;10351867;28;20054;-69
2022/03/21 08:41:34;;;;;;;20.02;11.63;;;;;;;;;;10350920;28;20062;-69
2022/03/21 08:46:38;;;;;;;15.00;11.55;;;;;;;;;;10349930;28;20061;-69
2022/03/21 08:51:40;;;;;;;15.68;11.38;;;;;;;;;;10351252;28;20051;-70
2022/03/21 08:56:42;;;;;;;13.63;12.00;;;;;;;;;;10352086;28;20416;-68
2022/03/21 09:01:46;;;;;;;15.45;11.10;;;;;;;;;;10348835;28;20069;-69
2022/03/21 09:06:48;;;;;;;14.02;12.00;;;;;;;;;;10349674;28;20097;-69
2022/03/21 09:11:52;;;;;;;15.02;10.45;;;;;;;;;;10355464;28;20065;-69
2022/03/21 09:16:57;;;;;;;14.43;12.07;;;;;;;;;;10350513;28;20047;-69
2022/03/21 09:22:00;;;;;;;17.85;12.13;;;;;;;;;;10349902;28;20269;-69
2022/03/21 09:27:03;;;;;;;14.00;12.00;;;;;;;;;;10349871;28;20276;-68
2022/03/21 09:32:07;;;;;;;19.27;13.73;;;;;;;;;;10367540;28;20145;-68
2022/03/21 09:37:10;;;;;;;19.58;14.90;;;;;;;;;;10376021;28;20037;-69
2022/03/21 09:42:12;;;;;;;20.60;15.67;;;;;;;;;;10399512;28;20129;-67
2022/03/21 09:52:36;;;;;;;31.48;22.67;;;;;;;;;;10318321;28;20046;-68
2022/03/21 09:57:38;;;;;;;30.50;17.85;;;;;;;;;;10358124;28;20042;-67
2022/03/21 10:02:42;;;;;;;30.60;17.00;;;;;;;;;;10383555;28;20065;-68
2022/03/21 10:07:45;;;;;;;32.13;16.53;;;;;;;;;;10357744;28;20130;-68
2022/03/21 10:12:48;;;;;;;26.05;16.20;;;;;;;;;;10357571;28;20077;-69
2022/03/21 10:18:08;;;;;;;27.25;15.07;;;;;;;;;;10362844;28;20060;-67
2022/03/21 10:23:22;;;;;;;23.33;15.63;;;;;;;;;;10412107;28;20037;-68
2022/03/21 10:28:35;;;;;;;27.25;15.48;;;;;;;;;;10374298;28;20074;-70
2022/03/21 10:33:39;;;;;;;27.35;17.02;;;;;;;;;;10370163;28;20046;-68
2022/03/21 10:38:41;;;;;;;24.60;15.50;;;;;;;;;;10356309;28;20043;-68
2022/03/21 10:43:53;;;;;;;21.80;15.00;;;;;;;;;;10353408;28;20062;-69
2022/03/21 10:49:05;;;;;;;24.05;15.05;;;;;;;;;;10376514;28;20057;-69
2022/03/21 10:54:07;;;;;;;25.15;14.98;;;;;;;;;;10410283;28;20046;-70
2022/03/21 10:59:10;;;;;;;23.83;14.13;;;;;;;;;;10358653;28;20333;-67
2022/03/21 11:04:13;;;;;;;26.15;15.32;;;;;;;;;;10355605;28;20100;-69
2022/03/21 11:09:17;;;;;;;24.30;15.40;;;;;;;;;;10355821;28;20050;-67
2022/03/21 11:14:20;;;;;;;29.30;15.38;;;;;;;;;;10354514;28;20273;-67
2022/03/21 11:19:25;;;;;;;22.38;15.95;;;;;;;;;;10353655;28;20222;-69
2022/03/21 11:24:27;;;;;;;27.75;16.60;;;;;;;;;;10351866;28;20081;-67
2022/03/21 11:29:42;;;;;;;19.83;14.32;;;;;;;;;;10353949;28;20116;-67
2022/03/21 11:34:56;;;;;;;24.13;15.53;;;;;;;;;;10382889;28;20046;-69
2022/03/21 11:40:30;;;;;;;25.05;15.35;;;;;;;;;;10386211;28;20034;-68
2022/03/21 11:45:35;;;;;;;28.45;14.85;;;;;;;;;;10368482;28;20221;-69
2022/03/21 11:50:38;;;;;;;;;;;;;;;;;;10361898;28;20241;-67
2022/03/21 11:55:42;;;;;;;17.80;12.82;;;;;;;;;;10351828;28;20112;-68
2022/03/21 12:01:09;;;;;;;21.00;14.27;;;;;;;;;;10353538;28;20046;-69
2022/03/21 12:06:30;;;;;;;23.67;13.10;;;;;;;;;;10358326;28;20349;-69
2022/03/21 12:11:58;;;;;;;22.20;12.48;;;;;;;;;;10367864;28;20089;-68
2022/03/21 12:17:29;;;;;;;22.58;12.30;;;;;;;;;;10365619;28;20322;-67
2022/03/21 12:22:47;;;;;;;18.42;13.13;;;;;;;;;;10349665;28;20050;-68
2022/03/21 12:27:52;;;;;;;21.45;11.80;;;;;;;;;;10353071;28;20061;-67
2022/03/21 12:32:56;;;;;;;22.92;13.05;;;;;;;;;;10352028;28;20054;-67
2022/03/21 12:38:03;;;;;;;23.05;14.75;;;;;;;;;;10351773;28;20349;-69
2022/03/21 12:43:06;;;;;;;24.63;12.95;;;;;;;;;;10351618;28;20057;-69
2022/03/21 12:48:09;;;;;;;22.95;12.93;;;;;;;;;;10391035;28;20050;-70
2022/03/21 12:53:18;;;;;;;19.65;13.63;;;;;;;;;;10383656;28;20088;-68
2022/03/21 12:58:21;;;;;;;22.75;12.18;;;;;;;;;;10385304;28;20535;-68
2022/03/21 13:03:24;;;;;;;21.33;11.82;;;;;;;;;;10351847;28;20061;-68
2022/03/21 13:13:57;;;;;;;19.40;11.60;;;;;;;;;;10372297;28;20077;-67
2022/03/21 13:18:59;;;;;;;16.70;12.40;;;;;;;;;;10359296;28;20088;-69
2022/03/21 13:24:05;;;;;;;19.90;13.35;;;;;;;;;;10358736;28;20233;-68
2022/03/21 13:29:10;;;;;;;25.90;12.90;;;;;;;;;;10358901;28;20057;-67
2022/03/21 13:34:13;;;;;;;22.92;13.20;;;;;;;;;;10358443;28;20364;-68
2022/03/21 13:39:19;;;;;;;21.48;12.88;;;;;;;;;;10359179;28;20054;-68
2022/03/21 13:44:23;;;;;;;22.77;14.10;;;;;;;;;;10371897;28;20050;-69
2022/03/21 13:49:41;;;;;;;27.55;14.30;;;;;;;;;;10358270;28;20053;-68
2022/03/21 13:54:53;;;;;;;21.45;12.77;;;;;;;;;;10379784;28;20046;-67
2022/03/21 14:00:00;;;;;;;35.78;18.05;;;;;;;;;;10370537;28;20050;-68
2022/03/21 14:05:13;;;;;;;18.67;12.65;;;;;;;;;;10361519;28;20053;-68
2022/03/21 14:10:20;;;;;;;24.13;14.18;;;;;;;;;;10356050;28;20066;-67
2022/03/21 14:15:25;;;;;;;20.60;12.98;;;;;;;;;;10370616;28;20053;-69
2022/03/21 14:20:27;;;;;;;23.50;13.40;;;;;;;;;;10356711;28;20433;-70
2022/03/21 14:30:52;;;;;;;23.35;13.32;;;;;;;;;;10361093;28;20066;-68
2022/03/21 14:35:54;;;;;;;20.17;13.10;;;;;;;;;;10360979;28;20065;-69
2022/03/21 14:40:58;;;;;;;24.05;14.43;;;;;;;;;;10356899;28;20034;-68
2022/03/21 14:46:02;;;;;;;25.07;15.90;;;;;;;;;;10357387;28;20061;-70
2022/03/21 14:51:05;;;;;;;27.00;14.38;;;;;;;;;;10356289;28;20046;-68
2022/03/21 14:56:09;;;;;;;30.42;15.20;;;;;;;;;;10359935;28;20054;-68
2022/03/21 15:01:16;;;;;;;22.40;14.25;;;;;;;;;;10358120;28;20055;-68
2022/03/21 15:06:18;;;;;;;19.13;12.80;;;;;;;;;;10356119;28;20057;-68
2022/03/21 15:11:23;;;;;;;22.55;13.88;;;;;;;;;;10354797;28;20085;-69
2022/03/21 15:16:25;;;;;;;;;;;;;;;;;;10383273;28;20062;-68
2022/03/21 15:21:28;;;;;;;24.77;14.43;;;;;;;;;;10394666;28;19919;-70
2022/03/21 15:26:31;;;;;;;28.20;14.93;;;;;;;;;;10355909;28;20078;-70
2022/03/21 15:31:35;;;;;;;25.45;14.60;;;;;;;;;;10371555;28;20046;-68
2022/03/21 15:41:58;;;;;;;27.73;14.93;;;;;;;;;;10407976;28;20050;-69
2022/03/21 15:47:00;;;;;;;24.13;14.93;;;;;;;;;;10392222;28;20054;-68
2022/03/21 15:52:04;;;;;;;40.42;18.88;;;;;;;;;;10353942;28;20085;-68
2022/03/21 15:57:08;;;;;;;39.75;19.85;;;;;;;;;;10354578;28;20089;-68
2022/03/21 16:02:13;;;;;;;36.63;19.20;;;;;;;;;;10367807;28;20057;-67
2022/03/21 16:07:16;;;;;;;31.77;19.05;;;;;;;;;;10353952;28;20050;-68
2022/03/21 16:12:19;;;;;;;27.65;17.15;;;;;;;;;;10351732;28;20048;-68
2022/03/21 16:17:22;;;;;;;39.20;18.30;;;;;;;;;;10365377;28;20080;-69
2022/03/21 16:22:25;;;;;;;32.35;17.13;;;;;;;;;;10394457;28;20042;-69
2022/03/21 16:27:29;;;;;;;36.42;18.58;;;;;;;;;;10376041;28;20085;-67
2022/03/21 16:32:31;;;;;;;36.88;17.67;;;;;;;;;;10353522;28;20057;-68
2022/03/21 16:37:35;;;;;;;33.75;17.70;;;;;;;;;;10353676;28;20046;-68
2022/03/21 16:42:38;;;;;;;33.00;17.95;;;;;;;;;;10351633;28;20050;-68
2022/03/21 16:47:41;;;;;;;36.97;17.98;;;;;;;;;;10351750;28;20061;-67
2022/03/21 16:52:45;;;;;;;36.05;19.83;;;;;;;;;;10350904;28;20046;-67
2022/03/21 16:57:49;;;;;;;39.97;20.23;;;;;;;;;;10370676;28;20238;-67
2022/03/21 17:02:52;;;;;;;170.63;49.47;;;;;;;;;;10393109;28;20325;-69
2022/03/21 17:07:55;;;;;;;97.35;33.20;;;;;;;;;;10356050;28;20046;-68
2022/03/21 17:12:59;;;;;;;56.28;24.92;;;;;;;;;;10351461;28;20050;-68
2022/03/21 17:23:27;;;;;;;53.77;26.40;;;;;;;;;;10384308;28;20041;-70
2022/03/21 17:28:32;;;;;;;59.58;28.40;;;;;;;;;;10362107;28;20057;-70
2022/03/21 17:33:35;;;;;;;76.80;33.80;;;;;;;;;;10352544;28;20058;-68
2022/03/21 17:38:39;;;;;;;74.93;35.72;;;;;;;;;;10348406;28;20050;-68
2022/03/21 17:43:43;;;;;;;78.57;37.35;;;;;;;;;;10325752;28;20050;-68
2022/03/21 17:48:45;;;;;;;78.47;32.70;;;;;;;;;;10350156;28;20059;-68
2022/03/21 17:53:48;;;;;;;130.27;43.80;;;;;;;;;;10367216;28;20042;-68
2022/03/21 17:58:51;;;;;;;90.55;33.30;;;;;;;;;;10378076;28;20042;-68
2022/03/21 18:03:54;;;;;;;62.65;30.23;;;;;;;;;;10349020;28;20349;-68
2022/03/21 18:08:57;;;;;;;74.40;34.15;;;;;;;;;;10358348;28;20069;-70
2022/03/21 18:14:01;;;;;;;76.07;34.58;;;;;;;;;;10350844;28;20039;-69
2022/03/21 18:19:44;;;;;;;57.85;28.55;;;;;;;;;;10354031;28;20062;-69
2022/03/21 18:24:42;;;;;;;55.13;27.30;;;;;;;;;;10354963;28;20046;-72
2022/03/21 18:29:46;;;;;;;60.97;29.65;;;;;;;;;;10355542;28;20108;-69
2022/03/21 18:34:49;;;;;;;58.53;28.53;;;;;;;;;;10354921;28;20042;-68
2022/03/21 18:39:52;;;;;;;63.22;30.73;;;;;;;;;;10356133;28;20057;-72
2022/03/21 18:44:58;;;;;;;75.32;33.78;;;;;;;;;;10355154;28;20081;-71
2022/03/21 18:50:01;;;;;;;81.32;38.35;;;;;;;;;;10368781;28;20046;-68
2022/03/21 18:55:04;;;;;;;81.70;41.80;;;;;;;;;;10354292;28;20054;-68
2022/03/21 19:00:14;;;;;;;102.15;43.92;;;;;;;;;;10353277;28;20057;-69
2022/03/21 19:05:17;;;;;;;131.30;53.10;;;;;;;;;;10354022;28;20069;-68
2022/03/21 19:10:19;;;;;;;108.55;49.03;;;;;;;;;;10354024;28;20233;-68
2022/03/21 19:15:24;;;;;;;109.35;45.88;;;;;;;;;;10352946;28;20054;-69
2022/03/21 19:20:28;;;;;;;83.10;38.47;;;;;;;;;;10353210;28;20046;-69
2022/03/21 19:25:30;;;;;;;89.82;43.63;;;;;;;;;;10368231;28;20101;-68
2022/03/21 19:30:35;;;;;;;86.43;39.15;;;;;;;;;;10394881;28;20261;-68
2022/03/21 19:35:37;;;;;;;90.23;40.63;;;;;;;;;;10377195;28;20345;-70
2022/03/21 19:40:40;;;;;;;78.28;37.47;;;;;;;;;;10352110;28;20050;-68
2022/03/21 19:45:44;;;;;;;77.80;40.42;;;;;;;;;;10357407;28;20068;-69
2022/03/21 19:50:47;;;;;;;93.47;44.45;;;;;;;;;;10351941;28;20038;-69
2022/03/21 19:55:49;;;;;;;102.03;47.95;;;;;;;;;;10352375;28;20057;-68
2022/03/21 20:00:53;;;;;;;115.75;59.25;;;;;;;;;;10380585;28;20054;-69
2022/03/21 20:05:55;;;;;;;115.93;57.35;;;;;;;;;;10366629;28;20042;-69
2022/03/21 20:10:57;;;;;;;118.93;54.70;;;;;;;;;;10350660;28;20058;-67
2022/03/21 20:16:02;;;;;;;114.03;53.33;;;;;;;;;;10370323;28;20052;-69
2022/03/21 20:21:04;;;;;;;113.57;50.75;;;;;;;;;;10377459;28;20238;-68
2022/03/21 20:26:06;;;;;;;104.00;51.45;;;;;;;;;;10351387;28;20372;-69
2022/03/21 20:31:10;;;;;;;106.65;49.40;;;;;;;;;;10360010;28;20373;-69
2022/03/21 20:36:13;;;;;;;110.13;52.53;;;;;;;;;;10353063;28;20061;-70
2022/03/21 20:41:15;;;;;;;130.60;59.17;;;;;;;;;;10351771;28;20050;-68
2022/03/21 20:46:19;;;;;;;108.30;53.28;;;;;;;;;;10351078;28;20063;-68
2022/03/21 20:51:21;;;;;;;111.85;50.97;;;;;;;;;;10350723;28;20081;-69
2022/03/21 20:56:23;;;;;;;108.88;50.08;;;;;;;;;;10348766;28;20372;-68
2022/03/21 21:01:27;;;;;;;107.00;47.72;;;;;;;;;;10359486;28;20038;-68
2022/03/21 21:06:30;;;;;;;119.47;49.90;;;;;;;;;;10350633;28;20097;-68
2022/03/21 21:11:32;;;;;;;104.28;44.75;;;;;;;;;;10337977;28;20073;-69
2022/03/21 21:16:37;;;;;;;96.25;43.85;;;;;;;;;;10347733;28;20038;-69
2022/03/21 21:21:39;;;;;;;98.43;43.60;;;;;;;;;;10358942;28;20058;-68
2022/03/21 21:26:41;;;;;;;112.10;47.00;;;;;;;;;;10352862;28;20057;-68
2022/03/21 21:31:47;;;;;;;102.00;45.70;;;;;;;;;;10358440;28;20538;-68
2022/03/21 21:36:49;;;;;;;;;;;;;;;;;;10363784;28;20088;-68
2022/03/21 21:41:51;;;;;;;109.32;50.63;;;;;;;;;;10357979;28;20168;-69
2022/03/21 21:46:55;;;;;;;125.70;55.10;;;;;;;;;;10383824;28;20095;-69
2022/03/21 21:51:57;;;;;;;102.63;49.35;;;;;;;;;;10355146;28;20046;-68
2022/03/21 21:56:59;;;;;;;129.63;55.80;;;;;;;;;;10357329;28;20081;-69
2022/03/21 22:02:06;;;;;;;109.55;49.88;;;;;;;;;;10356120;28;20042;-69
2022/03/21 22:07:08;;;;;;;103.65;47.05;;;;;;;;;;10353035;28;20042;-69
2022/03/21 22:12:12;;;;;;;97.03;45.75;;;;;;;;;;10336097;28;20046;-69
2022/03/21 22:17:16;;;;;;;103.30;49.05;;;;;;;;;;10389276;28;20073;-68
2022/03/21 22:22:22;;;;;;;126.10;55.10;;;;;;;;;;10386659;28;20042;-68
2022/03/21 22:27:25;;;;;;;189.25;74.78;;;;;;;;;;10357264;28;20344;-69
2022/03/21 22:32:29;;;;;;;121.05;52.45;;;;;;;;;;10360650;28;20073;-66
2022/03/21 22:37:32;;;;;;;318.70;120.57;;;;;;;;;;10346625;28;20042;-67
2022/03/21 22:47:55;;;;;;;165.35;68.57;;;;;;;;;;10368420;28;20054;-69
2022/03/21 22:52:58;;;;;;;142.85;59.95;;;;;;;;;;10353923;28;20348;-69
2022/03/21 22:58:01;;;;;;;117.72;51.80;;;;;;;;;;10370364;28;20053;-67
2022/03/21 23:03:05;;;;;;;111.97;48.25;;;;;;;;;;10371373;28;20050;-68
2022/03/21 23:08:08;;;;;;;106.03;46.42;;;;;;;;;;10354400;28;20046;-68
2022/03/21 23:13:10;;;;;;;100.80;45.67;;;;;;;;;;10354233;28;20353;-68
2022/03/21 23:18:15;;;;;;;104.72;46.78;;;;;;;;;;10353986;28;20199;-67
2022/03/21 23:23:17;;;;;;;104.65;47.45;;;;;;;;;;10354832;28;20054;-67
2022/03/21 23:28:21;;;;;;;110.63;48.35;;;;;;;;;;10372815;28;20058;-68
2022/03/21 23:33:25;;;;;;;95.72;44.22;;;;;;;;;;10374362;28;20081;-67
2022/03/21 23:38:27;;;;;;;104.38;45.60;;;;;;;;;;10353358;28;20061;-67
2022/03/21 23:43:30;;;;;;;120.60;49.88;;;;;;;;;;10352658;28;20065;-66
2022/03/21 23:48:35;;;;;;;105.97;51.33;;;;;;;;;;10359964;28;20377;-69
2022/03/21 23:53:38;;;;;;;117.65;55.97;;;;;;;;;;10352489;28;20034;-66
2022/03/21 23:58:40;;;;;;;111.38;50.38;;;;;;;;;;10353167;28;20427;-67
